createdAt,value
2018-02-04T00:00:08.004Z,86.90
2018-02-04T00:02:35.503Z,87.00
2018-02-04T00:05:02.995Z,86.50
2018-02-04T00:07:30.492Z,86.60
2018-02-04T00:09:57.972Z,86.80
2018-02-04T00:12:25.451Z,86.90
2018-02-04T00:14:52.947Z,86.60
2018-02-04T00:17:20.430Z,87.00
2018-02-04T00:19:47.929Z,87.20
2018-02-04T00:22:21.390Z,87.70
2018-02-04T00:24:48.883Z,87.70
2018-02-04T00:27:16.381Z,88.20
2018-02-04T00:29:43.861Z,88.30
2018-02-04T00:32:11.350Z,88.60
2018-02-04T00:34:38.842Z,89.20
2018-02-04T00:37:07.107Z,89.80
2018-02-04T00:39:35.358Z,89.90
2018-02-04T00:42:02.851Z,89.80
2018-02-04T00:44:31.103Z,89.50
2018-02-04T00:46:58.610Z,89.50
2018-02-04T00:49:26.090Z,89.10
2018-02-04T00:51:53.604Z,89.00
2018-02-04T00:54:21.088Z,89.00
2018-02-04T00:56:48.571Z,88.00
2018-02-04T00:59:16.062Z,87.90
2018-02-04T01:01:44.310Z,89.90
2018-02-04T01:04:11.803Z,89.80
2018-02-04T01:06:40.047Z,89.80
2018-02-04T01:09:07.526Z,89.80
2018-02-04T01:11:35.782Z,88.70
2018-02-04T01:14:03.261Z,88.70
2018-02-04T01:16:31.519Z,89.00
2018-02-04T01:18:59.008Z,89.00
2018-02-04T01:21:26.532Z,89.50
2018-02-04T01:23:54.006Z,89.20
2018-02-04T01:26:22.270Z,89.40
2018-02-04T01:28:49.759Z,89.30
2018-02-04T01:31:17.251Z,89.60
2018-02-04T01:33:44.874Z,89.00
2018-02-04T01:36:12.359Z,89.00
2018-02-04T01:38:39.903Z,88.70
2018-02-04T01:41:07.415Z,88.80
2018-02-04T01:43:34.908Z,88.90
2018-02-04T01:46:02.406Z,89.20
2018-02-04T01:48:29.891Z,89.20
2018-02-04T01:50:57.370Z,89.10
2018-02-04T01:53:25.091Z,89.10
2018-02-04T01:55:52.582Z,89.50
2018-02-04T01:58:20.860Z,90.20
2018-02-04T02:00:49.109Z,90.00
2018-02-04T02:03:16.602Z,90.00
2018-02-04T02:05:44.098Z,89.50
2018-02-04T02:08:11.593Z,89.10
2018-02-04T02:10:39.084Z,89.10
2018-02-04T02:13:06.577Z,89.70
2018-02-04T02:15:34.062Z,89.10
2018-02-04T02:18:01.555Z,89.10
2018-02-04T02:20:29.035Z,89.10
2018-02-04T02:22:56.515Z,89.10
2018-02-04T02:25:24.014Z,89.10
2018-02-04T02:27:51.508Z,89.00
2018-02-04T02:30:18.999Z,89.50
2018-02-04T02:32:46.535Z,90.00
2018-02-04T02:35:14.133Z,89.70
2018-02-04T02:37:42.399Z,89.90
2018-02-04T02:40:09.877Z,89.90
2018-02-04T02:42:38.154Z,89.50
2018-02-04T02:45:06.407Z,89.70
2018-02-04T02:47:33.900Z,89.60
2018-02-04T02:50:01.382Z,89.90
2018-02-04T02:52:28.870Z,90.00
2018-02-04T02:54:56.349Z,89.80
2018-02-04T02:57:24.623Z,89.50
2018-02-04T02:59:52.875Z,89.80
2018-02-04T03:02:25.356Z,89.90
2018-02-04T03:04:52.850Z,89.00
2018-02-04T03:07:20.366Z,89.00
2018-02-04T03:09:47.859Z,88.10
2018-02-04T03:12:15.366Z,87.90
2018-02-04T03:14:42.867Z,88.00
2018-02-04T03:17:11.118Z,89.00
2018-02-04T03:19:38.619Z,89.00
2018-02-04T03:22:06.106Z,89.40
2018-02-04T03:24:34.395Z,90.00
2018-02-04T03:27:01.900Z,90.00
2018-02-04T03:29:30.146Z,89.10
2018-02-04T03:31:57.643Z,89.10
2018-02-04T03:34:25.125Z,89.20
2018-02-04T03:36:52.615Z,89.30
2018-02-04T03:39:20.114Z,89.20
2018-02-04T03:41:47.598Z,89.10
2018-02-04T03:44:15.131Z,89.00
2018-02-04T03:46:42.612Z,89.10
2018-02-04T03:49:10.214Z,89.20
2018-02-04T03:51:37.694Z,89.50
2018-02-04T03:54:05.962Z,88.90
2018-02-04T03:56:34.234Z,88.20
2018-02-04T03:59:02.478Z,88.70
2018-02-04T04:01:29.975Z,88.70
2018-02-04T04:03:58.218Z,88.50
2018-02-04T04:06:25.858Z,88.50
2018-02-04T04:08:53.343Z,88.40
2018-02-04T04:11:20.823Z,89.60
2018-02-04T04:13:49.090Z,90.40
2018-02-04T04:16:17.340Z,90.40
2018-02-04T04:18:44.839Z,90.30
2018-02-04T04:21:13.107Z,90.70
2018-02-04T04:23:41.357Z,90.30
2018-02-04T04:26:08.874Z,90.60
2018-02-04T04:28:36.350Z,90.20
2018-02-04T04:31:03.859Z,90.30
2018-02-04T04:33:32.122Z,90.30
2018-02-04T04:35:59.628Z,90.30
2018-02-04T04:38:27.123Z,90.10
2018-02-04T04:40:54.618Z,90.00
2018-02-04T04:43:22.862Z,90.40
2018-02-04T04:45:50.354Z,90.40
2018-02-04T04:48:18.614Z,90.60
2018-02-04T04:50:46.102Z,90.60
2018-02-04T04:53:13.611Z,90.50
2018-02-04T04:55:41.099Z,90.40
2018-02-04T04:58:09.363Z,90.00
2018-02-04T05:00:37.614Z,90.00
2018-02-04T05:03:05.091Z,90.00
2018-02-04T05:05:32.590Z,90.20
2018-02-04T05:08:00.072Z,90.00
2018-02-04T05:10:27.567Z,90.20
2018-02-04T05:12:55.076Z,90.50
2018-02-04T05:15:22.563Z,90.10
2018-02-04T05:17:50.065Z,90.10
2018-02-04T05:20:17.560Z,90.70
2018-02-04T05:22:45.059Z,90.70
2018-02-04T05:25:13.316Z,90.90
2018-02-04T05:27:40.808Z,90.90
2018-02-04T05:30:08.319Z,90.80
2018-02-04T05:32:35.808Z,90.80
2018-02-04T05:35:04.095Z,91.00
2018-02-04T05:37:32.346Z,90.90
2018-02-04T05:39:59.987Z,90.90
2018-02-04T05:42:27.476Z,90.80
2018-02-04T05:44:55.736Z,90.80
2018-02-04T05:47:23.242Z,90.80
2018-02-04T05:49:50.726Z,90.80
2018-02-04T05:52:18.210Z,90.80
2018-02-04T05:54:45.717Z,90.90
2018-02-04T05:57:13.208Z,91.00
2018-02-04T05:59:40.703Z,91.10
2018-02-04T06:02:08.966Z,91.20
2018-02-04T06:04:36.479Z,91.20
2018-02-04T06:07:03.970Z,91.20
2018-02-04T06:09:31.460Z,91.10
2018-02-04T06:11:59.714Z,90.90
2018-02-04T06:14:27.202Z,90.90
2018-02-04T06:16:54.714Z,90.70
2018-02-04T06:19:22.225Z,90.60
2018-02-04T06:21:49.715Z,91.00
2018-02-04T06:24:17.222Z,90.40
2018-02-04T06:26:45.486Z,90.60
2018-02-04T06:29:13.783Z,90.70
2018-02-04T06:31:41.274Z,90.60
2018-02-04T06:34:08.759Z,90.50
2018-02-04T06:36:36.263Z,90.70
2018-02-04T06:39:03.769Z,90.40
2018-02-04T06:41:31.303Z,90.20
2018-02-04T06:43:58.795Z,90.50
2018-02-04T06:46:26.286Z,90.20
2018-02-04T06:48:53.775Z,90.00
2018-02-04T06:51:21.267Z,89.60
2018-02-04T06:53:48.762Z,89.70
2018-02-04T06:56:16.242Z,90.00
2018-02-04T06:58:43.782Z,90.00
2018-02-04T07:01:11.310Z,90.00
2018-02-04T07:03:39.567Z,90.00
2018-02-04T07:06:07.075Z,90.00
2018-02-04T07:08:34.560Z,89.60
2018-02-04T07:11:02.054Z,89.90
2018-02-04T07:13:29.543Z,89.80
2018-02-04T07:15:57.039Z,90.00
2018-02-04T07:18:25.302Z,90.10
2018-02-04T07:20:52.789Z,90.10
2018-02-04T07:23:20.288Z,90.10
2018-02-04T07:25:47.778Z,89.30
2018-02-04T07:28:15.296Z,89.40
2018-02-04T07:30:43.573Z,89.40
2018-02-04T07:33:11.836Z,89.40
2018-02-04T07:35:40.107Z,89.00
2018-02-04T07:38:08.379Z,88.60
2018-02-04T07:40:35.874Z,88.60
2018-02-04T07:43:03.383Z,89.20
2018-02-04T07:45:30.935Z,89.00
2018-02-04T07:47:58.439Z,89.60
2018-02-04T07:50:25.932Z,89.00
2018-02-04T07:52:53.434Z,89.30
2018-02-04T07:55:21.694Z,88.70
2018-02-04T07:57:49.187Z,88.60
2018-02-04T08:00:16.689Z,88.60
2018-02-04T08:02:44.963Z,87.90
2018-02-04T08:05:12.463Z,88.30
2018-02-04T08:07:40.722Z,88.00
2018-02-04T08:10:08.238Z,88.00
2018-02-04T08:12:35.722Z,86.90
2018-02-04T08:15:03.219Z,86.70
2018-02-04T08:17:30.714Z,86.40
2018-02-04T08:19:58.207Z,85.40
2018-02-04T08:22:25.710Z,84.40
2018-02-04T08:24:53.195Z,84.30
2018-02-04T08:27:20.686Z,84.70
2018-02-04T08:29:48.957Z,85.00
2018-02-04T08:32:16.440Z,84.60
2018-02-04T08:34:43.947Z,84.50
2018-02-04T08:37:11.439Z,82.70
2018-02-04T08:39:39.726Z,83.10
2018-02-04T08:42:07.986Z,83.20
2018-02-04T08:44:36.238Z,82.50
2018-02-04T08:47:03.740Z,82.50
2018-02-04T08:49:31.256Z,81.70
2018-02-04T08:51:58.762Z,81.80
2018-02-04T08:54:26.239Z,82.40
2018-02-04T08:56:53.739Z,83.30
2018-02-04T08:59:21.223Z,83.30
2018-02-04T09:01:49.475Z,82.30
2018-02-04T09:04:16.974Z,82.30
2018-02-04T09:06:44.458Z,81.30
2018-02-04T09:09:11.950Z,80.30
2018-02-04T09:11:40.204Z,80.50
2018-02-04T09:14:08.470Z,80.00
2018-02-04T09:16:35.971Z,80.00
2018-02-04T09:19:04.224Z,80.40
2018-02-04T09:21:31.715Z,80.40
2018-02-04T09:24:00.009Z,81.80
2018-02-04T09:26:27.604Z,81.80
2018-02-04T09:28:55.090Z,81.40
2018-02-04T09:31:23.347Z,80.50
2018-02-04T09:33:50.846Z,80.30
2018-02-04T09:36:19.093Z,81.30
2018-02-04T09:38:46.592Z,81.30
2018-02-04T09:41:14.074Z,81.90
2018-02-04T09:43:41.573Z,81.90
2018-02-04T09:46:09.083Z,82.10
2018-02-04T09:48:36.578Z,83.00
2018-02-04T09:51:04.088Z,83.00
2018-02-04T09:53:31.687Z,83.10
2018-02-04T09:55:59.179Z,83.00
2018-02-04T09:58:27.432Z,83.70
2018-02-04T10:00:54.936Z,83.50
2018-02-04T10:03:22.431Z,83.50
2018-02-04T10:05:49.946Z,82.40
2018-02-04T10:08:17.454Z,83.30
2018-02-04T10:10:44.934Z,82.60
2018-02-04T10:13:12.442Z,82.00
2018-02-04T10:15:39.938Z,82.60
2018-02-04T10:18:07.430Z,81.70
2018-02-04T10:20:35.679Z,80.80
2018-02-04T10:23:03.185Z,80.70
2018-02-04T10:25:30.670Z,81.50
2018-02-04T10:27:58.156Z,81.70
2018-02-04T10:30:25.651Z,80.10
2018-02-04T10:32:53.139Z,80.70
2018-02-04T10:35:20.731Z,79.40
2018-02-04T10:37:48.214Z,83.40
2018-02-04T10:40:15.695Z,82.80
2018-02-04T10:42:43.186Z,81.50
2018-02-04T10:45:10.676Z,82.40
2018-02-04T10:47:39.075Z,82.40
2018-02-04T10:50:06.558Z,82.40
2018-02-04T10:52:34.058Z,81.80
2018-02-04T10:55:02.339Z,81.90
2018-02-04T10:57:30.599Z,81.60
2018-02-04T10:59:58.091Z,81.60
2018-02-04T11:02:25.899Z,81.80
2018-02-04T11:04:53.393Z,82.10
2018-02-04T11:07:21.659Z,81.20
2018-02-04T11:09:49.146Z,81.00
2018-02-04T11:12:16.637Z,80.90
2018-02-04T11:14:44.121Z,81.40
2018-02-04T11:17:11.626Z,80.60
2018-02-04T11:19:39.098Z,80.60
2018-02-04T11:22:06.599Z,81.70
2018-02-04T11:24:34.134Z,80.90
2018-02-04T11:27:01.610Z,81.90
2018-02-04T11:29:29.107Z,82.20
2018-02-04T11:31:56.587Z,81.80
2018-02-04T11:34:24.078Z,81.30
2018-02-04T11:36:51.558Z,80.70
2018-02-04T11:39:19.810Z,81.00
2018-02-04T11:41:47.299Z,80.90
2018-02-04T11:44:15.542Z,82.10
2018-02-04T11:46:43.063Z,81.90
2018-02-04T11:49:10.554Z,82.30
2018-02-04T11:51:38.055Z,81.40
2018-02-04T11:54:05.610Z,80.50
2018-02-04T11:56:33.152Z,82.10
2018-02-04T11:59:01.439Z,82.80
2018-02-04T12:01:28.946Z,82.80
2018-02-04T12:03:56.462Z,82.70
2018-02-04T12:06:24.751Z,82.80
2018-02-04T12:08:52.235Z,82.80
2018-02-04T12:11:19.747Z,83.80
2018-02-04T12:13:47.999Z,84.20
2018-02-04T12:16:15.499Z,84.20
2018-02-04T12:18:43.005Z,84.00
2018-02-04T12:21:10.515Z,83.70
2018-02-04T12:23:38.046Z,83.80
2018-02-04T12:26:05.570Z,84.00
2018-02-04T12:28:33.091Z,84.00
2018-02-04T12:31:01.435Z,83.10
2018-02-04T12:33:29.727Z,81.30
2018-02-04T12:35:58.010Z,81.20
2018-02-04T12:38:25.518Z,81.00
2018-02-04T12:40:53.036Z,80.70
2018-02-04T12:43:20.561Z,80.80
2018-02-04T12:45:49.016Z,83.50
2018-02-04T12:48:16.554Z,83.50
2018-02-04T12:50:44.057Z,84.80
2018-02-04T12:53:11.626Z,84.50
2018-02-04T12:55:39.123Z,86.00
2018-02-04T12:58:06.666Z,86.00
2018-02-04T13:00:34.175Z,86.20
2018-02-04T13:03:01.686Z,85.90
2018-02-04T13:05:29.195Z,87.30
2018-02-04T13:07:56.704Z,86.60
2018-02-04T13:10:25.153Z,85.70
2018-02-04T13:12:53.443Z,87.20
2018-02-04T13:15:20.938Z,87.20
2018-02-04T13:17:48.443Z,87.40
2018-02-04T13:20:16.722Z,88.70
2018-02-04T13:22:45.002Z,88.80
2018-02-04T13:25:12.511Z,88.80
2018-02-04T13:27:40.003Z,89.20
2018-02-04T13:30:07.504Z,90.20
2018-02-04T13:32:35.028Z,90.30
2018-02-04T13:35:03.302Z,89.40
2018-02-04T13:37:31.590Z,89.60
2018-02-04T13:39:59.898Z,89.20
2018-02-04T13:42:27.406Z,89.20
2018-02-04T13:44:54.925Z,88.90
2018-02-04T13:47:22.413Z,90.00
2018-02-04T13:49:50.079Z,89.60
2018-02-04T13:52:17.598Z,90.10
2018-02-04T13:54:45.098Z,88.90
2018-02-04T13:57:13.391Z,89.90
2018-02-04T13:59:41.642Z,89.60
2018-02-04T14:02:09.145Z,89.50
2018-02-04T14:04:36.643Z,89.70
2018-02-04T14:07:04.140Z,90.00
2018-02-04T14:09:32.419Z,90.50
2018-02-04T14:12:00.683Z,90.80
2018-02-04T14:14:28.961Z,90.80
2018-02-04T14:16:57.230Z,90.90
2018-02-04T14:19:25.491Z,91.10
2018-02-04T14:21:52.999Z,91.10
2018-02-04T14:24:20.503Z,90.90
2018-02-04T14:26:48.113Z,90.50
2018-02-04T14:29:15.630Z,90.60
2018-02-04T14:31:43.118Z,90.30
2018-02-04T14:34:10.641Z,90.40
2018-02-04T14:36:38.185Z,90.20
2018-02-04T14:39:05.682Z,90.20
2018-02-04T14:41:33.957Z,90.20
2018-02-04T14:44:02.230Z,90.00
2018-02-04T14:46:30.506Z,90.10
2018-02-04T14:48:58.788Z,90.00
2018-02-04T14:51:27.074Z,89.70
2018-02-04T14:53:54.566Z,89.70
2018-02-04T14:56:22.058Z,89.90
2018-02-04T14:58:49.629Z,89.50
2018-02-04T15:01:17.926Z,89.20
2018-02-04T15:03:45.447Z,89.10
2018-02-04T15:06:13.875Z,89.30
2018-02-04T15:08:41.371Z,89.30
2018-02-04T15:11:08.888Z,89.50
2018-02-04T15:13:36.706Z,89.70
2018-02-04T15:16:04.998Z,90.10
2018-02-04T15:18:33.271Z,89.40
2018-02-04T15:21:00.821Z,89.30
2018-02-04T15:23:28.368Z,89.60
2018-02-04T15:25:55.877Z,89.40
2018-02-04T15:28:23.376Z,88.20
2018-02-04T15:30:50.879Z,88.60
2018-02-04T15:33:18.378Z,88.50
2018-02-04T15:35:45.903Z,88.80
2018-02-04T15:38:13.454Z,88.70
2018-02-04T15:40:41.755Z,88.20
2018-02-04T15:43:09.275Z,88.00
2018-02-04T15:45:37.562Z,86.90
2018-02-04T15:48:05.836Z,87.00
2018-02-04T15:50:33.340Z,86.90
2018-02-04T15:53:00.871Z,86.80
2018-02-04T15:55:28.384Z,87.10
2018-02-04T15:57:55.897Z,87.40
2018-02-04T16:00:23.495Z,87.10
2018-02-04T16:02:51.753Z,87.20
2018-02-04T16:05:19.276Z,87.40
2018-02-04T16:07:46.826Z,88.40
2018-02-04T16:10:15.093Z,88.00
2018-02-04T16:12:43.415Z,87.50
2018-02-04T16:15:10.961Z,87.50
2018-02-04T16:17:38.477Z,86.90
2018-02-04T16:20:06.795Z,87.40
2018-02-04T16:22:34.326Z,87.40
2018-02-04T16:25:02.597Z,87.60
2018-02-04T16:27:30.868Z,87.20
2018-02-04T16:29:59.141Z,87.40
2018-02-04T16:32:27.445Z,87.40
2018-02-04T16:34:55.088Z,87.30
2018-02-04T16:37:23.368Z,87.60
2018-02-04T16:39:51.710Z,87.30
2018-02-04T16:42:19.323Z,87.20
2018-02-04T16:44:46.906Z,88.00
2018-02-04T16:47:14.447Z,88.30
2018-02-04T16:49:41.965Z,88.00
2018-02-04T16:52:10.362Z,87.80
2018-02-04T16:54:38.629Z,87.20
2018-02-04T16:57:06.911Z,87.50
2018-02-04T16:59:35.183Z,87.90
2018-02-04T17:02:03.523Z,88.30
2018-02-04T17:04:31.055Z,87.80
2018-02-04T17:06:58.602Z,87.50
2018-02-04T17:09:26.468Z,87.40
2018-02-04T17:11:54.007Z,87.10
2018-02-04T17:14:22.345Z,87.20
2018-02-04T17:16:49.868Z,87.20
2018-02-04T17:19:17.451Z,87.30
2018-02-04T17:21:45.837Z,87.50
2018-02-04T17:24:13.445Z,87.40
2018-02-04T17:26:41.787Z,87.00
2018-02-04T17:29:09.494Z,87.00
2018-02-04T17:31:37.080Z,87.00
2018-02-04T17:34:04.678Z,87.40
2018-02-04T17:36:32.193Z,87.40
2018-02-04T17:38:59.709Z,87.30
2018-02-04T17:41:27.260Z,88.00
2018-02-04T17:43:54.853Z,87.90
2018-02-04T17:46:22.396Z,87.90
2018-02-04T17:48:50.723Z,88.40
2018-02-04T17:51:18.324Z,88.30
2018-02-04T17:53:46.758Z,88.40
2018-02-04T17:56:14.341Z,88.20
2018-02-04T17:58:41.878Z,88.40
2018-02-04T18:01:09.473Z,88.60
2018-02-04T18:03:37.041Z,88.90
2018-02-04T18:06:04.633Z,89.00
2018-02-04T18:08:32.173Z,88.70
2018-02-04T18:11:00.469Z,88.60
2018-02-04T18:13:28.034Z,88.70
2018-02-04T18:15:55.597Z,88.80
2018-02-04T18:18:23.173Z,88.90
2018-02-04T18:20:50.781Z,89.30
2018-02-04T18:23:19.134Z,90.00
2018-02-04T18:25:46.679Z,90.00
2018-02-04T18:28:14.315Z,90.20
2018-02-04T18:30:41.842Z,90.20
2018-02-04T18:33:10.127Z,90.20
2018-02-04T18:35:37.658Z,90.20
2018-02-04T18:38:05.163Z,90.10
2018-02-04T18:40:32.726Z,90.20
2018-02-04T18:43:00.225Z,90.20
2018-02-04T18:45:27.753Z,90.10
2018-02-04T18:47:55.255Z,89.80
2018-02-04T18:50:22.773Z,89.70
2018-02-04T18:52:50.443Z,89.40
2018-02-04T18:55:17.941Z,89.80
2018-02-04T18:57:46.222Z,89.20
2018-02-04T19:00:14.543Z,88.80
2018-02-04T19:02:42.054Z,88.70
2018-02-04T19:05:10.327Z,89.50
2018-02-04T19:07:38.605Z,89.40
2018-02-04T19:10:06.891Z,89.40
2018-02-04T19:12:35.152Z,89.40
2018-02-04T19:15:03.435Z,89.30
2018-02-04T19:17:31.716Z,89.90
2018-02-04T19:20:00.047Z,89.40
2018-02-04T19:22:27.581Z,89.40
2018-02-04T19:24:55.082Z,89.30
2018-02-04T19:27:22.587Z,89.40
2018-02-04T19:29:50.107Z,89.40
2018-02-04T19:32:18.384Z,88.90
2018-02-04T19:34:45.947Z,88.70
2018-02-04T19:37:14.235Z,88.30
2018-02-04T19:39:42.511Z,89.20
2018-02-04T19:42:10.779Z,89.20
2018-02-04T19:44:39.092Z,89.20
2018-02-04T19:47:06.594Z,89.30
2018-02-04T19:49:34.125Z,89.10
2018-02-04T19:52:01.648Z,89.60
2018-02-04T19:54:29.165Z,89.20
2018-02-04T19:56:56.663Z,88.80
2018-02-04T19:59:24.211Z,89.20
2018-02-04T20:01:52.495Z,88.90
2018-02-04T20:04:20.024Z,88.90
2018-02-04T20:06:48.314Z,89.00
2018-02-04T20:09:16.609Z,89.10
2018-02-04T20:11:44.112Z,89.00
2018-02-04T20:14:11.611Z,88.90
2018-02-04T20:16:39.140Z,89.00
2018-02-04T20:19:06.668Z,89.50
2018-02-04T20:21:34.199Z,89.10
2018-02-04T20:24:01.745Z,88.60
2018-02-04T20:26:29.275Z,89.00
2018-02-04T20:28:56.816Z,89.00
2018-02-04T20:31:24.400Z,89.30
2018-02-04T20:34:04.643Z,88.90
2018-02-04T20:36:32.155Z,88.90
2018-02-04T20:38:59.655Z,89.00
2018-02-04T20:41:27.214Z,88.70
2018-02-04T20:43:54.734Z,89.00
2018-02-04T20:46:22.219Z,89.00
2018-02-04T20:48:50.507Z,88.60
2018-02-04T20:51:18.031Z,88.60
2018-02-04T20:53:45.558Z,88.40
2018-02-04T20:56:13.853Z,88.40
2018-02-04T20:58:41.354Z,88.40
2018-02-04T21:01:08.880Z,88.00
2018-02-04T21:03:36.375Z,88.00
2018-02-04T21:06:03.880Z,87.90
2018-02-04T21:08:31.391Z,88.10
2018-02-04T21:10:58.940Z,88.00
2018-02-04T21:13:26.458Z,88.70
2018-02-04T21:15:53.968Z,88.30
2018-02-04T21:18:21.468Z,88.10
2018-02-04T21:20:49.751Z,87.50
2018-02-04T21:23:17.266Z,87.50
2018-02-04T21:25:44.793Z,87.50
2018-02-04T21:28:12.279Z,88.20
2018-02-04T21:30:39.798Z,87.80
2018-02-04T21:33:07.304Z,88.20
2018-02-04T21:35:34.942Z,87.70
2018-02-04T21:38:02.462Z,87.80
2018-02-04T21:40:29.985Z,88.00
2018-02-04T21:42:57.507Z,87.60
2018-02-04T21:45:25.021Z,87.30
2018-02-04T21:47:53.274Z,87.50
2018-02-04T21:50:20.800Z,87.50
2018-02-04T21:52:48.305Z,86.90
2018-02-04T21:55:16.582Z,87.40
2018-02-04T21:57:44.834Z,87.40
2018-02-04T22:00:12.387Z,87.40
2018-02-04T22:02:39.882Z,87.40
2018-02-04T22:05:08.150Z,88.30
2018-02-04T22:07:36.432Z,86.60
2018-02-04T22:10:04.691Z,86.90
2018-02-04T22:12:32.215Z,86.90
2018-02-04T22:14:59.721Z,87.20
2018-02-04T22:17:27.974Z,87.20
2018-02-04T22:19:55.504Z,87.30
2018-02-04T22:22:23.397Z,87.00
2018-02-04T22:24:51.007Z,86.50
2018-02-04T22:27:18.507Z,86.30
2018-02-04T22:29:46.028Z,86.50
2018-02-04T22:32:13.547Z,87.10
2018-02-04T22:34:41.814Z,87.30
2018-02-04T22:37:09.362Z,87.30
2018-02-04T22:39:36.858Z,87.60
2018-02-04T22:42:04.356Z,87.00
2018-02-04T22:44:31.881Z,87.40
2018-02-04T22:46:59.388Z,87.10
2018-02-04T22:49:26.886Z,86.70
2018-02-04T22:51:55.163Z,87.20
2018-02-04T22:54:23.434Z,86.90
2018-02-04T22:56:51.027Z,86.80
2018-02-04T22:59:18.538Z,87.00
2018-02-04T23:01:46.842Z,86.90
2018-02-04T23:04:14.342Z,87.30
2018-02-04T23:06:41.847Z,86.90
2018-02-04T23:09:10.140Z,87.20
2018-02-04T23:11:37.644Z,87.20
2018-02-04T23:14:05.155Z,87.20
2018-02-04T23:16:32.670Z,87.20
2018-02-04T23:19:00.186Z,87.20
2018-02-04T23:21:27.715Z,87.80
2018-02-04T23:23:55.984Z,87.60
2018-02-04T23:26:24.243Z,87.50
2018-02-04T23:28:51.740Z,87.50
2018-02-04T23:31:19.244Z,87.30
2018-02-04T23:33:46.766Z,87.30
2018-02-04T23:36:14.291Z,87.10
2018-02-04T23:38:41.786Z,87.20
2018-02-04T23:41:09.309Z,87.10
2018-02-04T23:43:37.571Z,87.80
2018-02-04T23:46:05.854Z,88.50
2018-02-04T23:48:34.157Z,88.00
2018-02-04T23:51:02.567Z,87.90
2018-02-04T23:53:30.083Z,87.60
2018-02-04T23:55:57.586Z,87.40
2018-02-04T23:58:25.082Z,87.60
